Time;durP1;ratioP1;P1;durP2;ratioP2;P2;SDS_P1;SDS_P2;PMS_P1;PMS_P2;Temp;Humidity;BMP_temperature;BMP_pressure;BME280_temperature;BME280_humidity;BME280_pressure;Samples;Min_cycle;Max_cycle;Signal;HPM_P1;HPM_P2
2022/08/16 00:01:28;;;;;;;23.40;16.60;;;;;;;20.96;93.16;100083.40;107346;1248;59793;-65
2022/08/16 00:04:03;;;;;;;18.80;16.00;;;;;;;20.95;93.45;100081.97;107373;1247;73690;-65
2022/08/16 00:06:32;;;;;;;22.00;15.20;;;;;;;20.96;93.05;100084.83;107486;1247;72037;-68
2022/08/16 00:09:04;;;;;;;21.30;15.40;;;;;;;20.96;92.12;100092.88;107384;1247;71419;-65
2022/08/16 00:11:33;;;;;;;29.00;15.40;;;;;;;20.97;91.85;100108.73;107348;1247;63744;-66
2022/08/16 00:14:08;;;;;;;19.30;15.50;;;;;;;20.94;92.12;100133.67;107290;1247;59525;-65
2022/08/16 00:16:37;;;;;;;21.30;16.20;;;;;;;20.95;92.03;100146.54;107174;1250;60058;-64
2022/08/16 00:19:32;;;;;;;15.50;12.60;;;;;;;20.97;91.56;100148.92;107238;1247;62813;-64
2022/08/16 00:22:10;;;;;;;;;;;;;;;20.99;89.93;100150.20;107314;1248;60896;-65
2022/08/16 00:24:44;;;;;;;16.90;11.50;;;;;;;20.96;88.98;100154.39;107356;1247;71122;-64
2022/08/16 00:27:14;;;;;;;15.70;10.90;;;;;;;20.95;88.31;100145.96;107410;1247;63767;-62
2022/08/16 00:29:44;;;;;;;11.30;8.00;;;;;;;20.92;86.41;100143.85;107417;1247;62857;-64
2022/08/16 00:32:14;;;;;;;13.70;6.90;;;;;;;20.85;84.31;100153.03;107477;1247;60972;-65
2022/08/16 00:34:46;;;;;;;10.10;6.80;;;;;;;20.79;83.59;100159.80;107266;1247;75327;-64
2022/08/16 00:37:24;;;;;;;8.70;6.30;;;;;;;20.77;83.06;100153.36;107321;1247;72384;-66
2022/08/16 00:40:35;;;;;;;11.40;6.20;;;;;;;20.73;82.92;100154.31;107136;1248;59731;-64
2022/08/16 00:43:25;;;;;;;8.30;6.20;;;;;;;20.70;82.90;100161.27;107329;1247;62338;-65
2022/08/16 00:46:24;;;;;;;10.60;6.00;;;;;;;20.65;82.84;100157.27;107420;1247;59589;-65
2022/08/16 00:49:09;;;;;;;10.80;6.20;;;;;;;20.68;82.89;100153.57;107478;1247;61631;-64
2022/08/16 00:51:49;;;;;;;9.70;5.60;;;;;;;20.65;82.69;100151.47;107307;1250;63542;-64
2022/08/16 00:54:29;;;;;;;10.20;5.90;;;;;;;20.61;82.09;100149.48;107460;1247;71877;-64
2022/08/16 00:57:02;;;;;;;10.00;5.70;;;;;;;20.58;81.23;100139.61;107471;1247;71198;-65
2022/08/16 00:59:35;;;;;;;8.90;5.60;;;;;;;20.54;81.29;100134.78;107487;1250;62856;-65
2022/08/16 01:02:20;;;;;;;9.60;5.30;;;;;;;20.52;81.18;100138.56;107357;1247;62627;-63
2022/08/16 01:05:09;;;;;;;7.50;5.40;;;;;;;20.49;81.39;100136.65;107469;1247;60999;-64
2022/08/16 01:07:43;;;;;;;7.20;5.50;;;;;;;20.43;81.53;100134.88;107371;1247;63573;-62
2022/08/16 01:10:24;;;;;;;10.10;5.60;;;;;;;20.37;81.96;100126.75;107432;1247;72333;-64
2022/08/16 01:13:12;;;;;;;10.10;5.60;;;;;;;20.34;81.73;100127.78;107337;1247;70917;-64
2022/08/16 01:15:47;;;;;;;6.00;4.80;;;;;;;20.34;81.47;100121.65;107370;1248;73160;-65
2022/08/16 01:18:27;;;;;;;8.40;5.00;;;;;;;20.30;81.33;100118.15;107363;1247;63478;-64
2022/08/16 01:21:17;;;;;;;8.50;5.10;;;;;;;20.29;81.13;100115.60;107427;1247;58302;-64
2022/08/16 01:24:03;;;;;;;8.00;5.40;;;;;;;20.27;80.85;100126.70;107451;1247;74781;-66
2022/08/16 01:27:00;;;;;;;8.00;5.40;;;;;;;20.30;80.70;100130.44;107377;1248;72478;-63
2022/08/16 01:29:57;;;;;;;7.40;5.60;;;;;;;20.31;80.63;100125.55;107248;1250;59427;-62
2022/08/16 01:32:31;;;;;;;6.40;4.80;;;;;;;20.26;80.89;100108.98;107403;1247;73455;-63
2022/08/16 01:35:19;;;;;;;7.80;5.30;;;;;;;20.26;81.17;100100.53;107285;1249;59009;-62
2022/08/16 01:37:53;;;;;;;7.60;5.20;;;;;;;20.23;80.97;100099.71;107476;1247;60244;-65
2022/08/16 01:40:29;;;;;;;8.10;5.30;;;;;;;20.24;81.14;100096.24;107382;1247;64107;-66
2022/08/16 01:42:58;;;;;;;8.90;5.70;;;;;;;20.23;81.11;100094.23;107407;1250;60969;-66
2022/08/16 01:45:29;;;;;;;8.70;5.20;;;;;;;20.18;81.16;100090.73;107524;1247;61633;-65
2022/08/16 01:48:12;;;;;;;7.60;5.50;;;;;;;20.11;81.41;100085.27;107607;1247;62790;-65
2022/08/16 01:50:51;;;;;;;9.40;5.30;;;;;;;20.09;81.74;100084.56;107469;1247;61996;-65
2022/08/16 01:53:40;;;;;;;10.20;5.40;;;;;;;20.06;81.97;100086.85;107524;1247;59010;-65
2022/08/16 01:56:26;;;;;;;9.10;5.60;;;;;;;20.03;82.10;100088.70;107406;1248;74797;-66
2022/08/16 01:59:01;;;;;;;8.30;5.40;;;;;;;19.97;82.24;100092.86;107448;1248;70687;-64
2022/08/16 02:01:33;;;;;;;6.90;4.90;;;;;;;19.94;82.20;100100.61;107514;1247;59725;-64
2022/08/16 02:04:03;;;;;;;6.80;4.70;;;;;;;19.93;81.86;100105.21;107387;1247;74941;-63
2022/08/16 02:06:40;;;;;;;7.50;4.80;;;;;;;19.87;81.91;100106.18;107303;1247;62778;-65
2022/08/16 02:09:15;;;;;;;7.70;5.00;;;;;;;19.90;81.63;100113.13;107544;1247;60246;-64
2022/08/16 02:11:51;;;;;;;5.50;4.50;;;;;;;19.85;81.88;100114.71;107457;1248;73184;-65
2022/08/16 02:14:25;;;;;;;6.80;4.70;;;;;;;19.82;82.10;100117.08;107707;1244;61192;-65
2022/08/16 02:17:00;;;;;;;7.90;4.70;;;;;;;19.76;82.22;100113.99;107586;1247;69790;-68
2022/08/16 02:19:35;;;;;;;9.80;5.40;;;;;;;19.85;81.98;100121.08;107354;1247;74608;-66
2022/08/16 02:22:24;;;;;;;9.10;4.80;;;;;;;19.89;82.11;100117.45;107224;1247;59652;-61
2022/08/16 02:25:11;;;;;;;8.10;4.70;;;;;;;19.90;82.02;100114.71;107210;1247;61340;-62
2022/08/16 02:27:45;;;;;;;6.20;5.10;;;;;;;19.86;82.29;100119.21;107352;1246;63456;-63
2022/08/16 02:30:24;;;;;;;8.40;5.40;;;;;;;19.84;82.69;100120.86;107245;1250;72791;-64
2022/08/16 02:33:12;;;;;;;6.40;4.80;;;;;;;19.78;82.93;100110.45;107152;1248;71088;-66
2022/08/16 02:35:43;;;;;;;10.50;5.50;;;;;;;19.83;82.52;100108.44;107311;1247;73605;-63
2022/08/16 02:38:28;;;;;;;8.30;5.20;;;;;;;19.83;82.53;100105.91;107248;1248;59617;-71
2022/08/16 02:41:03;;;;;;;9.40;5.30;;;;;;;19.87;82.31;100107.27;107124;1249;59630;-65
2022/08/16 02:43:38;;;;;;;11.40;5.20;;;;;;;19.94;82.17;100108.57;107257;1247;74462;-64
2022/08/16 02:46:08;;;;;;;8.30;5.00;;;;;;;19.96;81.77;100107.02;107273;1247;72317;-63
2022/08/16 02:48:38;;;;;;;8.70;5.60;;;;;;;20.01;81.62;100109.23;107343;1247;60170;-62
2022/08/16 02:51:17;;;;;;;9.40;5.50;;;;;;;20.05;81.14;100109.24;107296;1250;63668;-63
2022/08/16 02:53:51;;;;;;;9.00;5.40;;;;;;;20.07;81.04;100106.64;107470;1247;63086;-65
2022/08/16 02:56:21;;;;;;;8.10;5.20;;;;;;;20.06;81.00;100109.01;107396;1247;61451;-66
2022/08/16 02:58:52;;;;;;;7.20;5.30;;;;;;;20.08;81.14;100106.09;107279;1250;64296;-66
2022/08/16 03:01:27;;;;;;;7.10;5.20;;;;;;;20.07;80.92;100109.36;107242;1247;72211;-65
2022/08/16 03:04:12;;;;;;;8.40;5.80;;;;;;;20.08;81.14;100106.78;107287;1247;70129;-65
2022/08/16 03:07:03;;;;;;;7.30;5.10;;;;;;;20.08;81.32;100107.14;107322;1247;64504;-65
2022/08/16 03:09:38;;;;;;;8.70;5.80;;;;;;;20.06;81.01;100108.75;107409;1247;62751;-65
2022/08/16 03:12:11;;;;;;;7.90;5.20;;;;;;;20.06;81.61;100110.25;107493;1247;57973;-66
2022/08/16 03:14:46;;;;;;;9.20;5.40;;;;;;;20.04;81.88;100112.08;107261;1248;73440;-64
2022/08/16 03:17:17;;;;;;;8.50;5.70;;;;;;;20.00;82.09;100112.03;107495;1247;72749;-66
2022/08/16 03:19:47;;;;;;;8.00;5.60;;;;;;;19.99;82.34;100117.32;107349;1248;71285;-67
2022/08/16 03:22:32;;;;;;;9.20;6.40;;;;;;;19.97;82.23;100115.91;107412;1247;73959;-65
2022/08/16 03:25:08;;;;;;;;;;;;;;;19.99;80.99;100112.64;107242;1248;62676;-64
2022/08/16 03:27:39;;;;;;;8.30;6.10;;;;;;;20.07;80.31;100108.75;107432;1247;58580;-64
2022/08/16 03:30:22;;;;;;;8.00;5.80;;;;;;;20.14;80.27;100100.63;107542;1247;62997;-60
2022/08/16 03:32:54;;;;;;;11.60;6.00;;;;;;;20.18;80.76;100098.35;107452;1247;72002;-62
2022/08/16 03:35:29;;;;;;;11.80;6.50;;;;;;;20.18;81.42;100098.75;107476;1247;60704;-62
2022/08/16 03:38:16;;;;;;;12.20;6.60;;;;;;;20.19;81.06;100101.05;107432;1247;74302;-62
2022/08/16 03:41:07;;;;;;;12.30;7.10;;;;;;;20.20;80.86;100100.17;107346;1247;62601;-65
2022/08/16 03:43:56;;;;;;;9.50;5.90;;;;;;;20.23;81.10;100097.15;107539;1247;59592;-66
2022/08/16 03:46:29;;;;;;;9.50;6.60;;;;;;;20.24;81.12;100095.32;107385;1247;63699;-63
2022/08/16 03:49:26;;;;;;;12.50;7.20;;;;;;;20.29;80.82;100092.16;107446;1247;72763;-64
2022/08/16 03:52:06;;;;;;;10.40;7.00;;;;;;;20.32;81.44;100094.52;107276;1247;70201;-66
2022/08/16 03:54:36;;;;;;;10.80;6.80;;;;;;;20.33;81.18;100101.65;107284;1247;73540;-66
2022/08/16 03:57:21;;;;;;;13.50;6.90;;;;;;;20.33;81.17;100106.06;107402;1247;59610;-64
2022/08/16 03:59:50;;;;;;;7.50;6.30;;;;;;;20.35;81.04;100113.67;107518;1247;61155;-66
2022/08/16 04:02:20;;;;;;;9.90;6.10;;;;;;;20.36;81.11;100120.90;107393;1247;65370;-66
2022/08/16 04:04:52;;;;;;;11.10;7.10;;;;;;;20.38;80.88;100129.49;107370;1249;61638;-65
2022/08/16 04:07:24;;;;;;;13.70;6.80;;;;;;;20.38;80.85;100135.26;107338;1250;59133;-67
2022/08/16 04:09:53;;;;;;;10.20;6.00;;;;;;;20.42;80.44;100138.77;107466;1247;62467;-65
2022/08/16 04:12:24;;;;;;;9.20;6.10;;;;;;;20.43;80.22;100141.80;107428;1250;59658;-65
2022/08/16 04:15:16;;;;;;;8.80;6.10;;;;;;;20.41;80.08;100146.66;107399;1249;58327;-64
2022/08/16 04:18:00;;;;;;;7.30;5.60;;;;;;;20.29;80.43;100149.50;107279;1248;72187;-65
2022/08/16 04:20:30;;;;;;;7.50;5.30;;;;;;;20.22;80.66;100150.13;107416;1247;72835;-65
2022/08/16 04:23:06;;;;;;;9.30;5.80;;;;;;;20.10;81.43;100142.95;107384;1247;71382;-66
2022/08/16 04:25:38;;;;;;;8.40;5.70;;;;;;;20.07;81.57;100144.08;107352;1248;63764;-69
2022/08/16 04:28:09;;;;;;;7.60;5.00;;;;;;;20.06;81.78;100147.91;107331;1248;63040;-65
2022/08/16 04:30:58;;;;;;;7.70;5.10;;;;;;;19.96;82.39;100146.84;107346;1248;59068;-65
2022/08/16 04:33:28;;;;;;;8.10;5.20;;;;;;;19.85;83.33;100150.45;107445;1248;65342;-66
2022/08/16 04:36:03;;;;;;;12.90;8.80;;;;;;;19.79;83.84;100153.11;107532;1247;61251;-66
2022/08/16 04:38:33;;;;;;;9.30;5.60;;;;;;;19.77;84.04;100151.21;107396;1250;59924;-67
2022/08/16 04:41:02;;;;;;;7.50;5.50;;;;;;;19.71;84.72;100149.46;107307;1247;63100;-65
2022/08/16 04:43:37;;;;;;;9.60;6.00;;;;;;;19.72;84.81;100145.13;107539;1247;59615;-63
2022/08/16 04:46:14;;;;;;;9.40;5.50;;;;;;;19.73;84.95;100143.04;107443;1247;60528;-65
2022/08/16 04:49:03;;;;;;;10.20;6.30;;;;;;;19.79;84.43;100140.20;107282;1248;75525;-66
2022/08/16 04:51:34;;;;;;;11.20;5.50;;;;;;;19.78;84.50;100138.31;107517;1246;61976;-66
2022/08/16 04:54:03;;;;;;;7.50;5.20;;;;;;;19.79;84.10;100136.84;107344;1250;60070;-66
2022/08/16 04:56:35;;;;;;;7.70;5.00;;;;;;;19.84;83.84;100134.77;107420;1247;73530;-66
2022/08/16 04:59:13;;;;;;;6.90;5.20;;;;;;;19.91;84.03;100137.06;107299;1250;62692;-66
2022/08/16 05:01:44;;;;;;;8.60;5.20;;;;;;;19.95;83.97;100140.35;107508;1247;57735;-66
2022/08/16 05:04:26;;;;;;;8.70;5.40;;;;;;;20.04;83.24;100139.67;107427;1248;63761;-67
2022/08/16 05:06:58;;;;;;;8.60;4.80;;;;;;;20.06;82.89;100138.82;107392;1247;71600;-66
2022/08/16 05:09:39;;;;;;;14.20;6.80;;;;;;;20.15;82.65;100137.36;107336;1248;61006;-69
2022/08/16 05:12:16;;;;;;;14.80;5.90;;;;;;;20.26;81.93;100127.41;107232;1247;73582;-65
2022/08/16 05:14:59;;;;;;;10.70;6.30;;;;;;;20.31;81.89;100125.75;107302;1247;62829;-67
2022/08/16 05:17:33;;;;;;;9.40;5.80;;;;;;;20.37;81.52;100134.39;107227;1248;60759;-66
2022/08/16 05:20:08;;;;;;;7.80;5.50;;;;;;;20.42;81.05;100131.26;107386;1247;74206;-66
2022/08/16 05:22:58;;;;;;;10.50;5.60;;;;;;;20.54;80.63;100128.83;107146;1249;73152;-64
2022/08/16 05:25:29;;;;;;;10.00;5.70;;;;;;;20.56;80.75;100127.30;107387;1247;70114;-66
2022/08/16 05:28:17;;;;;;;10.70;5.90;;;;;;;20.70;80.61;100118.35;107268;1247;74749;-65
2022/08/16 05:30:54;;;;;;;8.60;5.10;;;;;;;20.80;79.98;100114.40;107396;1247;58361;-66
2022/08/16 05:33:25;;;;;;;12.40;6.70;;;;;;;20.91;79.16;100114.73;107333;1248;59644;-67
2022/08/16 05:35:56;;;;;;;7.80;5.70;;;;;;;20.98;79.21;100111.95;107511;1247;62965;-67
2022/08/16 05:38:32;;;;;;;10.00;5.60;;;;;;;21.16;78.90;100112.39;107604;1247;61938;-71
2022/08/16 05:41:10;;;;;;;7.80;5.40;;;;;;;21.20;77.93;100109.48;107599;1247;59540;-69
2022/08/16 05:43:46;;;;;;;9.20;5.10;;;;;;;21.37;77.25;100115.33;107274;1248;74273;-68
2022/08/16 05:46:38;;;;;;;9.70;5.70;;;;;;;21.46;76.68;100120.24;107394;1247;59642;-69
2022/08/16 05:49:17;;;;;;;8.50;4.90;;;;;;;21.66;75.95;100116.17;107486;1247;57895;-69
2022/08/16 05:51:56;;;;;;;10.90;5.40;;;;;;;21.66;75.18;100117.58;107148;1248;64197;-70
2022/08/16 05:54:27;;;;;;;8.80;5.70;;;;;;;21.67;75.19;100119.41;107437;1247;60890;-70
2022/08/16 05:56:58;;;;;;;7.50;5.10;;;;;;;21.78;74.63;100111.32;107548;1250;59546;-69
2022/08/16 05:59:28;;;;;;;6.40;5.00;;;;;;;21.75;73.82;100120.59;107705;1247;72832;-70
2022/08/16 06:01:57;;;;;;;8.60;5.50;;;;;;;21.60;74.35;100128.05;107532;1247;59706;-70
2022/08/16 06:04:31;;;;;;;9.50;5.50;;;;;;;21.85;73.91;100128.54;107462;1247;61144;-70
2022/08/16 06:07:06;;;;;;;8.10;5.00;;;;;;;21.81;74.24;100129.79;107356;1250;64442;-70
2022/08/16 06:09:38;;;;;;;10.70;4.70;;;;;;;22.10;74.17;100134.33;107543;1247;61444;-70
2022/08/16 06:12:15;;;;;;;9.40;5.50;;;;;;;22.23;72.25;100135.77;107374;1250;59644;-69
2022/08/16 06:15:02;;;;;;;;;;;;;;;22.15;72.06;100138.24;107516;1247;63188;-69
2022/08/16 06:17:36;;;;;;;5.60;4.60;;;;;;;22.10;72.40;100143.20;107403;1249;59644;-70
2022/08/16 06:20:20;;;;;;;8.50;5.30;;;;;;;22.02;72.40;100140.26;107508;1247;60415;-70
2022/08/16 06:22:55;;;;;;;6.90;4.90;;;;;;;21.90;72.51;100135.86;107402;1247;74044;-69
2022/08/16 06:25:48;;;;;;;9.50;5.10;;;;;;;21.95;72.62;100135.52;107317;1250;73261;-69
2022/08/16 06:28:21;;;;;;;22.30;6.00;;;;;;;21.86;72.84;100133.70;107502;1247;60088;-70
2022/08/16 06:31:08;;;;;;;12.20;5.40;;;;;;;21.94;73.10;100132.25;107538;1247;74254;-69
2022/08/16 06:33:42;;;;;;;8.30;5.50;;;;;;;21.91;73.30;100126.80;107436;1247;62724;-71
2022/08/16 06:36:15;;;;;;;7.10;4.80;;;;;;;21.89;73.63;100122.77;107511;1247;61264;-69
2022/08/16 06:38:55;;;;;;;6.90;5.00;;;;;;;21.95;73.62;100124.12;107260;1246;75716;-68
2022/08/16 06:41:42;;;;;;;11.20;6.50;;;;;;;22.07;72.85;100126.16;107403;1247;73171;-68
2022/08/16 06:44:21;;;;;;;10.50;7.30;;;;;;;22.23;71.91;100125.30;107456;1247;60297;-68
2022/08/16 06:46:57;;;;;;;9.60;4.50;;;;;;;22.35;70.62;100129.94;107470;1247;65379;-69
2022/08/16 06:49:30;;;;;;;6.50;4.40;;;;;;;22.60;69.97;100129.78;107569;1247;59552;-67
2022/08/16 06:52:00;;;;;;;8.60;4.50;;;;;;;22.84;68.63;100125.41;107239;1247;58353;-67
2022/08/16 06:54:35;;;;;;;9.10;5.00;;;;;;;23.02;68.70;100124.98;107618;1247;74840;-68
2022/08/16 06:57:05;;;;;;;13.10;5.10;;;;;;;23.09;67.87;100126.95;107330;1246;72600;-69
2022/08/16 06:59:45;;;;;;;10.40;5.10;;;;;;;23.04;67.16;100121.71;107399;1247;59589;-69
2022/08/16 07:02:21;;;;;;;7.40;6.40;;;;;;;22.97;67.91;100121.89;107468;1248;63079;-69
2022/08/16 07:05:06;;;;;;;7.80;5.00;;;;;;;23.01;69.26;100119.45;107464;1247;60334;-67
2022/08/16 07:07:50;;;;;;;7.40;4.90;;;;;;;22.77;69.18;100123.49;107456;1247;61705;-70
2022/08/16 07:10:21;;;;;;;7.40;5.00;;;;;;;22.67;69.81;100125.48;107560;1248;63486;-68
2022/08/16 07:12:54;;;;;;;6.80;5.10;;;;;;;22.76;70.11;100129.34;107580;1247;60783;-69
2022/08/16 07:15:41;;;;;;;6.40;4.50;;;;;;;22.79;69.31;100132.84;107494;1247;59021;-67
2022/08/16 07:18:21;;;;;;;6.30;4.90;;;;;;;22.65;69.79;100134.66;107368;1248;73432;-67
2022/08/16 07:20:52;;;;;;;6.50;5.00;;;;;;;22.76;69.71;100140.31;107566;1247;59779;-68
2022/08/16 07:23:26;;;;;;;6.90;4.80;;;;;;;22.91;69.44;100140.10;107372;1247;59537;-68
2022/08/16 07:26:13;;;;;;;7.20;4.80;;;;;;;23.05;69.01;100137.86;107510;1247;73609;-67
2022/08/16 07:28:54;;;;;;;7.70;5.10;;;;;;;23.19;68.67;100133.51;107276;1247;72222;-67
2022/08/16 07:31:23;;;;;;;10.50;5.60;;;;;;;23.31;68.35;100137.00;107077;1250;60468;-67
2022/08/16 07:34:06;;;;;;;10.10;5.80;;;;;;;23.50;66.76;100138.84;107336;1247;74895;-67
2022/08/16 07:36:38;;;;;;;10.60;5.90;;;;;;;23.61;66.46;100139.58;107519;1247;61662;-69
2022/08/16 07:39:07;;;;;;;9.00;5.60;;;;;;;23.61;66.15;100140.06;107549;1248;59487;-66
2022/08/16 07:41:40;;;;;;;9.00;6.10;;;;;;;23.65;66.51;100140.96;107431;1248;63035;-68
2022/08/16 07:44:10;;;;;;;13.00;6.90;;;;;;;23.85;66.16;100141.88;107548;1247;72313;-67
2022/08/16 07:46:45;;;;;;;10.70;6.60;;;;;;;23.65;66.38;100142.14;107505;1247;70458;-71
2022/08/16 07:49:24;;;;;;;10.60;6.30;;;;;;;23.59;66.63;100147.58;107613;1247;63014;-68
2022/08/16 07:52:00;;;;;;;10.50;6.90;;;;;;;23.62;66.14;100151.63;107543;1247;59625;-68
2022/08/16 07:54:46;;;;;;;9.40;6.40;;;;;;;23.53;66.52;100157.83;107321;1248;58713;-69
2022/08/16 07:57:16;;;;;;;8.70;6.50;;;;;;;23.63;66.20;100164.10;107514;1247;63674;-69
2022/08/16 07:59:47;;;;;;;13.50;7.00;;;;;;;23.48;66.87;100164.05;107402;1248;61322;-71
2022/08/16 08:02:17;;;;;;;10.50;7.00;;;;;;;23.39;67.26;100165.23;107482;1247;70451;-68
2022/08/16 08:04:55;;;;;;;11.80;6.70;;;;;;;23.69;66.71;100173.60;107484;1247;75069;-69
2022/08/16 08:07:28;;;;;;;8.20;6.30;;;;;;;23.95;66.37;100173.40;107393;1249;58027;-68
2022/08/16 08:10:04;;;;;;;10.40;7.90;;;;;;;24.29;65.35;100167.26;107516;1246;60461;-68
2022/08/16 08:12:39;;;;;;;11.10;7.50;;;;;;;24.39;65.21;100168.48;107645;1247;63045;-67
2022/08/16 08:15:13;;;;;;;12.30;9.40;;;;;;;24.38;64.28;100168.75;107469;1247;72295;-67
2022/08/16 08:17:53;;;;;;;11.20;8.10;;;;;;;24.26;64.84;100177.86;107418;1247;59733;-68
2022/08/16 08:20:28;;;;;;;15.10;8.50;;;;;;;24.21;65.01;100182.53;107490;1248;62386;-66
2022/08/16 08:23:01;;;;;;;12.10;8.20;;;;;;;23.97;65.49;100189.52;107522;1247;59601;-68
2022/08/16 08:25:44;;;;;;;12.40;8.80;;;;;;;24.04;65.18;100187.45;107432;1247;60441;-68
2022/08/16 08:28:26;;;;;;;13.80;8.90;;;;;;;23.70;66.30;100184.91;107428;1247;63447;-68
2022/08/16 08:31:06;;;;;;;14.00;8.70;;;;;;;23.69;66.24;100190.59;107477;1247;71939;-70
2022/08/16 08:33:37;;;;;;;12.80;8.40;;;;;;;23.38;67.42;100220.27;107497;1247;70585;-69
2022/08/16 08:36:25;;;;;;;10.40;6.70;;;;;;;22.44;77.47;100261.40;107237;1250;63335;-70
2022/08/16 08:39:42;;;;;;;21.90;8.10;;;;;;;20.39;90.49;100219.66;107431;1247;59594;-71
2022/08/16 08:42:25;;;;;;;10.80;7.90;;;;;;;19.95;90.76;100224.15;107453;1247;60838;-68
2022/08/16 08:44:55;;;;;;;12.60;7.90;;;;;;;19.66;94.08;100230.23;107592;1247;64911;-68
2022/08/16 08:47:24;;;;;;;15.40;9.10;;;;;;;19.44;98.11;100234.92;107534;1247;60867;-69
2022/08/16 08:49:55;;;;;;;20.00;11.30;;;;;;;19.34;99.62;100233.66;107239;1250;59834;-67
2022/08/16 08:52:26;;;;;;;18.10;10.80;;;;;;;19.34;100.00;100227.95;107227;1248;73070;-69
2022/08/16 08:55:08;;;;;;;16.50;8.70;;;;;;;19.34;100.00;100223.92;107320;1247;59645;-66
2022/08/16 08:57:45;;;;;;;15.80;10.50;;;;;;;19.32;100.00;100211.63;107328;1248;59520;-68
2022/08/16 09:00:36;;;;;;;16.70;10.70;;;;;;;19.29;100.00;100203.27;107654;1247;74794;-69
2022/08/16 09:03:19;;;;;;;15.60;11.20;;;;;;;19.26;100.00;100194.63;107540;1250;72714;-67
2022/08/16 09:05:52;;;;;;;17.40;10.70;;;;;;;19.24;100.00;100194.34;107857;1247;59493;-71
2022/08/16 09:08:22;;;;;;;18.70;11.40;;;;;;;19.22;100.00;100194.50;107481;1247;62340;-69
2022/08/16 09:11:00;;;;;;;17.30;11.30;;;;;;;19.26;100.00;100201.08;107585;1247;62996;-69
2022/08/16 09:13:32;;;;;;;21.50;12.60;;;;;;;19.26;100.00;100203.14;107701;1247;62045;-67
2022/08/16 09:16:01;;;;;;;24.60;12.70;;;;;;;19.26;100.00;100202.07;107427;1247;63439;-67
2022/08/16 09:18:31;;;;;;;19.40;12.90;;;;;;;19.37;100.00;100200.25;107455;1247;70896;-66
2022/08/16 09:21:06;;;;;;;22.50;13.00;;;;;;;19.50;100.00;100201.88;107541;1247;69767;-66
2022/08/16 09:23:38;;;;;;;20.60;12.40;;;;;;;19.50;100.00;100212.48;107365;1247;74283;-69
2022/08/16 09:26:11;;;;;;;20.20;13.90;;;;;;;19.55;100.00;100210.38;107319;1248;62364;-66
2022/08/16 09:29:00;;;;;;;19.70;12.80;;;;;;;19.64;100.00;100205.75;107670;1247;58232;-67
2022/08/16 09:31:46;;;;;;;16.00;12.70;;;;;;;19.70;100.00;100206.40;107563;1247;74633;-69
2022/08/16 09:34:22;;;;;;;17.90;12.20;;;;;;;19.72;100.00;100205.20;107443;1247;73137;-69
2022/08/16 09:36:50;;;;;;;18.40;12.10;;;;;;;19.78;100.00;100207.73;107547;1247;70919;-69
2022/08/16 09:39:22;;;;;;;11.00;8.50;;;;;;;19.83;100.00;100208.26;107421;1247;74067;-68
2022/08/16 09:41:55;;;;;;;13.60;8.40;;;;;;;19.81;100.00;100210.80;107361;1248;63544;-67
2022/08/16 09:44:25;;;;;;;;;;;;;;;19.80;100.00;100206.70;107314;1247;62695;-68
2022/08/16 09:47:14;;;;;;;11.00;7.40;;;;;;;19.81;100.00;100198.98;107387;1247;64381;-66
2022/08/16 09:49:43;;;;;;;8.50;6.80;;;;;;;19.80;100.00;100197.53;107547;1247;70853;-67
2022/08/16 09:52:19;;;;;;;8.40;5.90;;;;;;;19.80;100.00;100198.06;107444;1247;60441;-66
2022/08/16 09:54:49;;;;;;;14.00;9.60;;;;;;;19.87;100.00;100194.04;107503;1247;74279;-68
2022/08/16 09:57:18;;;;;;;7.70;6.20;;;;;;;19.87;100.00;100193.92;107404;1247;59585;-69
2022/08/16 09:59:50;;;;;;;10.70;7.40;;;;;;;19.96;100.00;100187.50;107517;1247;60878;-67
2022/08/16 10:02:24;;;;;;;8.70;6.10;;;;;;;20.10;100.00;100187.52;107279;1250;75271;-67
2022/08/16 10:04:57;;;;;;;6.60;5.50;;;;;;;20.20;100.00;100195.54;107495;1247;63360;-67
2022/08/16 10:07:29;;;;;;;6.80;5.50;;;;;;;20.29;100.00;100196.52;107407;1247;60254;-68
2022/08/16 10:10:13;;;;;;;7.30;5.10;;;;;;;20.39;100.00;100196.50;107409;1247;64229;-66
2022/08/16 10:15:40;;;;;;;7.80;5.50;;;;;;;20.47;100.00;100195.39;107412;1248;60895;-67
2022/08/16 10:18:11;;;;;;;;;;;;;;;20.62;100.00;100191.12;107489;1247;73162;-68
2022/08/16 10:21:00;;;;;;;7.30;5.80;;;;;;;20.78;100.00;100188.45;107378;1247;61467;-68
2022/08/16 10:23:29;;;;;;;7.20;5.70;;;;;;;20.97;100.00;100187.15;107228;1247;61844;-68
2022/08/16 10:25:58;;;;;;;7.40;5.00;;;;;;;20.97;99.90;100182.66;107292;1250;63232;-71
2022/08/16 10:28:47;;;;;;;6.30;5.20;;;;;;;21.21;98.77;100186.21;107428;1247;62136;-68
2022/08/16 10:31:18;;;;;;;8.20;5.40;;;;;;;21.19;97.97;100186.23;107235;1247;60835;-68
2022/08/16 10:34:07;;;;;;;7.70;5.70;;;;;;;21.25;97.76;100188.79;107133;1247;74767;-69
2022/08/16 10:36:56;;;;;;;10.30;5.50;;;;;;;21.71;98.55;100198.89;107321;1247;72217;-69
2022/08/16 10:39:25;;;;;;;6.10;5.00;;;;;;;21.93;94.73;100211.98;107378;1247;71311;-68
2022/08/16 10:42:11;;;;;;;6.70;5.60;;;;;;;22.28;94.56;100220.75;107166;1248;71820;-68
2022/08/16 10:44:42;;;;;;;10.20;5.40;;;;;;;22.60;93.03;100224.99;107364;1247;62568;-69
2022/08/16 10:47:22;;;;;;;12.00;6.00;;;;;;;22.74;90.84;100223.66;107416;1247;57938;-69
2022/08/16 10:49:52;;;;;;;7.60;5.20;;;;;;;23.33;91.46;100216.89;107585;1247;73288;-69
2022/08/16 10:52:21;;;;;;;6.00;5.30;;;;;;;23.68;89.29;100212.27;107180;1250;62031;-69
2022/08/16 10:54:51;;;;;;;7.20;5.40;;;;;;;23.88;87.08;100215.64;107384;1247;70525;-70
2022/08/16 10:57:40;;;;;;;8.70;6.20;;;;;;;23.77;85.55;100227.50;107335;1250;63178;-70
2022/08/16 11:00:14;;;;;;;7.60;5.40;;;;;;;23.61;85.08;100231.73;107470;1248;59618;-70
2022/08/16 11:02:51;;;;;;;9.40;5.70;;;;;;;24.02;84.28;100234.23;107150;1248;60334;-69
2022/08/16 11:05:33;;;;;;;6.00;5.10;;;;;;;24.25;82.24;100227.34;107189;1250;64343;-70
2022/08/16 11:08:22;;;;;;;7.60;5.00;;;;;;;24.08;82.31;100225.02;107138;1248;62668;-70
2022/08/16 11:11:06;;;;;;;6.30;5.30;;;;;;;24.33;81.15;100232.66;107294;1247;59919;-69
2022/08/16 11:13:47;;;;;;;7.50;5.60;;;;;;;24.05;81.83;100235.09;107338;1247;74250;-67
2022/08/16 11:16:36;;;;;;;6.50;5.70;;;;;;;23.81;81.20;100228.90;107306;1248;63520;-68
2022/08/16 11:19:25;;;;;;;7.90;6.00;;;;;;;24.06;81.73;100220.25;107321;1249;59663;-68
2022/08/16 11:21:58;;;;;;;6.70;5.50;;;;;;;24.58;80.84;100207.20;107444;1247;62873;-68
2022/08/16 11:24:47;;;;;;;6.50;5.60;;;;;;;24.88;76.64;100197.99;107264;1250;61641;-69
2022/08/16 11:27:37;;;;;;;8.30;6.40;;;;;;;25.54;74.60;100201.31;107388;1247;59890;-69
2022/08/16 11:30:10;;;;;;;7.10;5.40;;;;;;;25.69;73.66;100210.56;106281;1247;1719405;-68
2022/08/16 11:32:47;;;;;;;5.80;5.30;;;;;;;25.96;71.08;100209.46;107284;1247;63282;-71
2022/08/16 11:35:23;;;;;;;7.50;6.00;;;;;;;25.59;71.05;100213.17;107422;1248;58470;-72
2022/08/16 11:38:17;;;;;;;5.60;5.00;;;;;;;25.79;71.99;100214.91;107625;1246;72477;-71
2022/08/16 11:41:05;;;;;;;6.80;5.20;;;;;;;26.27;69.82;100213.21;107490;1248;62587;-70
2022/08/16 11:43:39;;;;;;;6.30;5.10;;;;;;;27.15;66.42;100215.27;107481;1247;59656;-69
2022/08/16 11:46:11;;;;;;;7.10;4.90;;;;;;;27.34;64.38;100222.51;107463;1247;73846;-69
2022/08/16 11:49:01;;;;;;;;;;;;;;;27.25;64.14;100227.15;107434;1248;58342;-76
2022/08/16 11:51:33;;;;;;;5.90;5.30;;;;;;;27.12;64.60;100231.80;107525;1247;59610;-70
2022/08/16 11:54:05;;;;;;;8.40;5.40;;;;;;;26.62;65.27;100230.80;107253;1250;64186;-70
2022/08/16 11:56:52;;;;;;;7.60;6.00;;;;;;;25.92;66.48;100231.70;107474;1247;72047;-69
2022/08/16 11:59:28;;;;;;;6.90;5.20;;;;;;;25.55;68.66;100236.46;107367;1247;63177;-70
2022/08/16 12:02:00;;;;;;;8.50;5.60;;;;;;;26.06;65.11;100234.35;107495;1247;74116;-68
2022/08/16 12:04:49;;;;;;;13.30;5.70;;;;;;;26.04;66.56;100231.00;107472;1247;60488;-68